Time;durP1;ratioP1;P1;durP2;ratioP2;P2;SDS_P1;SDS_P2;PMS_P1;PMS_P2;Temp;Humidity;BMP_temperature;BMP_pressure;BME280_temperature;BME280_humidity;BME280_pressure;Samples;Min_cycle;Max_cycle;Signal;HPM_P1;HPM_P2
2023/11/21 00:00:34;;;;;;;22.45;10.82;;;9.60;99.90;;;;;;5042365;28;20375;-60
2023/11/21 00:02:59;;;;;;;20.67;10.27;;;9.60;99.90;;;;;;5041386;28;20025;-60
2023/11/21 00:05:25;;;;;;;23.60;9.55;;;9.60;99.90;;;;;;5048522;28;20021;-60
2023/11/21 00:07:51;;;;;;;24.88;11.02;;;9.60;99.90;;;;;;5045289;28;20040;-56
2023/11/21 00:10:16;;;;;;;22.90;10.50;;;9.60;99.90;;;;;;5050144;28;20448;-57
2023/11/21 00:12:42;;;;;;;25.65;9.50;;;9.60;99.90;;;;;;5052052;28;20060;-57
2023/11/21 00:15:10;;;;;;;29.02;12.80;;;9.60;99.90;;;;;;5045606;28;20029;-56
2023/11/21 00:17:37;;;;;;;31.95;11.07;;;9.60;99.90;;;;;;5045869;28;20028;-59
2023/11/21 00:20:06;;;;;;;25.08;10.60;;;9.60;99.90;;;;;;5040657;28;20025;-56
2023/11/21 00:22:32;;;;;;;20.58;10.93;;;9.60;99.90;;;;;;5049182;28;20037;-60
2023/11/21 00:24:58;;;;;;;19.42;11.80;;;9.50;99.90;;;;;;5046718;28;20021;-56
2023/11/21 00:27:23;;;;;;;24.80;12.07;;;9.50;99.90;;;;;;5050989;28;20041;-57
2023/11/21 00:29:49;;;;;;;23.73;11.73;;;9.50;99.90;;;;;;5047359;28;20032;-57
2023/11/21 00:32:14;;;;;;;27.65;12.07;;;9.60;99.90;;;;;;5050049;28;20478;-58
2023/11/21 00:34:40;;;;;;;29.15;11.82;;;9.50;99.90;;;;;;5048551;28;20475;-61
2023/11/21 00:37:05;;;;;;;27.15;12.25;;;9.50;99.90;;;;;;5043254;28;20674;-60
2023/11/21 00:39:32;;;;;;;26.40;11.27;;;9.50;99.90;;;;;;5043041;28;20135;-60
2023/11/21 00:41:58;;;;;;;26.23;11.50;;;9.50;99.90;;;;;;5050202;28;20036;-59
2023/11/21 00:44:23;;;;;;;26.42;13.10;;;9.50;99.90;;;;;;5041228;28;20033;-55
2023/11/21 00:46:50;;;;;;;26.38;11.63;;;9.50;99.90;;;;;;5040230;28;22118;-60
2023/11/21 00:49:16;;;;;;;26.48;11.40;;;9.50;99.90;;;;;;5039745;28;20029;-58
2023/11/21 00:51:41;;;;;;;29.08;11.65;;;9.50;99.90;;;;;;5040593;28;20024;-58
2023/11/21 00:54:06;;;;;;;27.30;13.18;;;9.50;99.90;;;;;;5042387;28;20024;-59
2023/11/21 00:56:32;;;;;;;31.42;15.20;;;9.50;99.90;;;;;;5042218;28;20379;-56
2023/11/21 00:58:58;;;;;;;29.67;13.77;;;9.50;99.90;;;;;;5042191;28;20036;-56
2023/11/21 01:01:24;;;;;;;29.92;13.77;;;9.40;99.90;;;;;;5042345;28;20040;-60
2023/11/21 01:03:50;;;;;;;35.83;16.08;;;9.40;99.90;;;;;;5045315;28;20172;-60
2023/11/21 01:06:15;;;;;;;35.63;16.27;;;9.50;99.90;;;;;;5043903;28;20554;-59
2023/11/21 01:08:41;;;;;;;32.75;16.88;;;9.40;99.90;;;;;;5040541;28;20025;-57
2023/11/21 01:11:11;;;;;;;38.15;16.92;;;9.40;99.90;;;;;;5048129;28;20029;-60
2023/11/21 01:13:39;;;;;;;37.22;17.20;;;9.40;99.90;;;;;;5048136;28;20029;-59
2023/11/21 01:16:06;;;;;;;43.38;19.02;;;9.40;99.90;;;;;;5046699;28;20040;-60
2023/11/21 01:18:31;;;;;;;35.92;19.05;;;9.40;99.90;;;;;;5050420;28;20024;-58
2023/11/21 01:20:57;;;;;;;41.38;18.40;;;9.40;99.90;;;;;;5047402;28;20402;-60
2023/11/21 01:23:23;;;;;;;34.42;18.88;;;9.30;99.90;;;;;;5043147;28;20029;-60
2023/11/21 01:25:48;;;;;;;44.30;18.65;;;9.30;99.90;;;;;;5043341;28;20032;-57
2023/11/21 01:28:14;;;;;;;39.95;20.58;;;9.40;99.90;;;;;;5047218;28;20082;-61
2023/11/21 01:30:39;;;;;;;36.05;19.05;;;9.40;99.90;;;;;;5041650;28;20041;-61
2023/11/21 01:33:05;;;;;;;39.30;17.15;;;9.30;99.90;;;;;;5048372;28;20060;-60
2023/11/21 01:35:30;;;;;;;52.58;18.23;;;9.40;99.90;;;;;;5048637;28;20033;-59
2023/11/21 01:37:56;;;;;;;45.25;19.42;;;9.40;99.90;;;;;;5048262;28;20039;-60
2023/11/21 01:40:22;;;;;;;37.58;18.17;;;9.40;99.90;;;;;;5051057;28;20029;-59
2023/11/21 01:42:48;;;;;;;41.17;19.92;;;9.40;99.90;;;;;;5041018;28;20134;-59
2023/11/21 01:45:14;;;;;;;51.17;18.92;;;9.40;99.90;;;;;;5039339;28;20040;-59
2023/11/21 01:47:42;;;;;;;36.45;17.58;;;9.30;99.90;;;;;;5042545;28;20508;-62
2023/11/21 01:50:09;;;;;;;44.42;19.13;;;9.40;99.90;;;;;;5040617;28;20120;-61
2023/11/21 01:52:38;;;;;;;42.35;19.30;;;9.40;99.90;;;;;;5040034;28;20752;-58
2023/11/21 01:55:06;;;;;;;44.35;19.50;;;9.30;99.90;;;;;;5042460;28;20029;-60
2023/11/21 01:57:31;;;;;;;34.22;18.77;;;9.30;99.90;;;;;;5041653;28;20033;-61
2023/11/21 02:00:00;;;;;;;38.45;18.05;;;9.30;99.90;;;;;;5045596;28;20059;-60
2023/11/21 02:02:25;;;;;;;35.42;17.25;;;9.30;99.90;;;;;;5040122;28;20032;-60
2023/11/21 02:04:51;;;;;;;31.30;17.90;;;9.30;99.90;;;;;;5041096;28;20025;-58
2023/11/21 02:07:18;;;;;;;33.00;17.75;;;9.20;99.90;;;;;;5046347;28;20091;-61
2023/11/21 02:09:45;;;;;;;38.13;18.88;;;9.30;99.90;;;;;;5038940;28;20383;-60
2023/11/21 02:12:10;;;;;;;35.58;18.80;;;9.20;99.90;;;;;;5043520;28;20672;-59
2023/11/21 02:14:36;;;;;;;34.78;18.55;;;9.20;99.90;;;;;;5045789;28;20037;-59
2023/11/21 02:17:03;;;;;;;42.08;18.35;;;9.20;99.90;;;;;;5049467;28;20379;-61
2023/11/21 02:19:30;;;;;;;44.28;19.83;;;9.10;99.90;;;;;;5051791;28;20335;-60
2023/11/21 02:22:06;;;;;;;49.05;19.77;;;9.10;99.90;;;;;;5050129;28;20033;-61
2023/11/21 02:24:32;;;;;;;51.25;20.45;;;9.10;99.90;;;;;;5048637;28;20032;-61
2023/11/21 02:26:58;;;;;;;56.97;19.52;;;9.10;99.90;;;;;;5050197;28;20048;-61
2023/11/21 02:29:27;;;;;;;40.10;19.10;;;9.10;99.90;;;;;;5047079;28;20663;-60
2023/11/21 02:31:54;;;;;;;43.50;19.27;;;9.10;99.90;;;;;;5043526;28;20407;-60
2023/11/21 02:34:21;;;;;;;35.35;16.52;;;9.00;99.90;;;;;;5049261;28;21001;-60
2023/11/21 02:37:20;;;;;;;38.58;19.33;;;9.10;99.90;;;;;;5040871;28;20017;-60
2023/11/21 02:39:46;;;;;;;38.42;17.83;;;9.00;99.90;;;;;;5046372;28;20029;-59
2023/11/21 02:42:11;;;;;;;42.80;19.10;;;9.00;99.90;;;;;;5049877;28;20032;-56
2023/11/21 02:44:37;;;;;;;46.47;20.05;;;9.00;99.90;;;;;;5041012;28;20024;-58
2023/11/21 02:47:02;;;;;;;44.10;18.27;;;9.00;99.90;;;;;;5038443;28;20510;-57
2023/11/21 02:49:29;;;;;;;49.83;18.50;;;9.00;99.90;;;;;;5038089;28;20282;-59
2023/11/21 02:51:55;;;;;;;39.72;18.42;;;9.10;99.90;;;;;;5037259;28;20029;-59
2023/11/21 02:54:21;;;;;;;38.30;18.40;;;9.10;99.90;;;;;;5037250;28;20486;-60
2023/11/21 02:56:48;;;;;;;43.53;17.38;;;9.10;99.90;;;;;;5036344;28;20069;-58
2023/11/21 02:59:15;;;;;;;35.72;16.92;;;9.10;99.90;;;;;;5037193;28;20043;-58
2023/11/21 03:01:41;;;;;;;44.10;20.67;;;9.10;99.90;;;;;;5039100;28;20414;-59
2023/11/21 03:04:06;;;;;;;45.47;19.80;;;9.10;99.90;;;;;;5042611;28;20025;-60
2023/11/21 03:06:32;;;;;;;48.72;20.38;;;9.10;99.90;;;;;;5037192;28;20032;-59
2023/11/21 03:08:57;;;;;;;43.08;21.02;;;9.10;99.90;;;;;;5036039;28;20053;-59
2023/11/21 03:11:23;;;;;;;45.25;20.70;;;9.10;99.90;;;;;;5037131;28;20041;-57
2023/11/21 03:13:48;;;;;;;48.08;21.85;;;9.10;99.90;;;;;;5048435;28;20445;-60
2023/11/21 03:16:15;;;;;;;44.30;21.00;;;9.10;99.90;;;;;;5042843;28;20079;-59
2023/11/21 03:18:41;;;;;;;60.95;20.17;;;9.10;99.90;;;;;;5043943;28;20025;-58
2023/11/21 03:21:10;;;;;;;48.80;20.58;;;9.10;99.90;;;;;;5047366;28;20453;-58
2023/11/21 03:23:36;;;;;;;48.35;21.83;;;9.10;99.90;;;;;;5042302;28;20387;-59
2023/11/21 03:26:03;;;;;;;60.75;20.70;;;9.10;99.90;;;;;;5050850;28;20082;-59
2023/11/21 03:28:29;;;;;;;51.60;22.50;;;9.10;99.90;;;;;;5046942;28;20118;-59
2023/11/21 03:30:56;;;;;;;42.75;21.33;;;9.10;99.90;;;;;;5042272;28;20479;-57
2023/11/21 03:33:22;;;;;;;49.90;20.90;;;9.10;99.90;;;;;;5042245;28;20037;-59
2023/11/21 03:35:47;;;;;;;47.45;21.17;;;9.10;99.90;;;;;;5043043;28;20036;-60
2023/11/21 03:38:13;;;;;;;48.75;21.75;;;9.10;99.90;;;;;;5041009;28;20033;-60
2023/11/21 03:40:41;;;;;;;57.08;21.45;;;9.10;99.90;;;;;;5039960;28;20658;-60
2023/11/21 03:43:07;;;;;;;47.53;21.75;;;9.10;99.90;;;;;;5041727;28;20127;-60
2023/11/21 03:45:33;;;;;;;50.03;20.33;;;9.10;99.90;;;;;;5042979;28;22303;-60
2023/11/21 03:48:01;;;;;;;49.22;19.83;;;9.10;99.90;;;;;;5038975;28;20499;-59
2023/11/21 03:50:28;;;;;;;48.35;21.00;;;9.10;99.90;;;;;;5040008;28;20037;-61
2023/11/21 03:52:53;;;;;;;44.17;21.17;;;9.10;99.90;;;;;;5038254;28;20450;-61
2023/11/21 03:55:19;;;;;;;57.13;22.27;;;9.10;99.90;;;;;;5040158;28;20032;-59
2023/11/21 03:57:45;;;;;;;44.67;22.25;;;9.10;99.90;;;;;;5039810;28;22093;-60
2023/11/21 04:00:11;;;;;;;48.10;21.30;;;9.10;99.90;;;;;;5041735;28;20036;-61
2023/11/21 04:02:36;;;;;;;44.67;21.60;;;9.10;99.90;;;;;;5041147;28;20032;-58
2023/11/21 04:05:03;;;;;;;62.22;21.90;;;9.00;99.90;;;;;;5040059;28;20033;-59
2023/11/21 04:07:28;;;;;;;53.65;21.73;;;9.00;99.90;;;;;;5044059;28;20120;-57
2023/11/21 04:09:54;;;;;;;51.63;21.85;;;9.00;99.90;;;;;;5043349;28;20104;-60
2023/11/21 04:12:20;;;;;;;52.97;21.80;;;9.00;99.90;;;;;;5044726;28;20025;-60
2023/11/21 04:14:45;;;;;;;63.67;22.55;;;9.00;99.90;;;;;;5042420;28;21311;-59
2023/11/21 04:17:11;;;;;;;49.72;23.10;;;9.00;99.90;;;;;;5041051;28;20025;-59
2023/11/21 04:19:37;;;;;;;54.95;22.73;;;9.00;99.90;;;;;;5046878;28;20104;-59
2023/11/21 04:22:02;;;;;;;49.20;21.90;;;9.00;99.90;;;;;;5047939;28;20017;-61
2023/11/21 04:24:28;;;;;;;57.53;23.38;;;9.00;99.90;;;;;;5047286;28;20032;-60
2023/11/21 04:26:53;;;;;;;56.80;21.48;;;9.10;99.90;;;;;;5052009;28;20094;-60
2023/11/21 04:29:19;;;;;;;45.13;20.40;;;9.10;99.90;;;;;;5042807;28;20514;-58
2023/11/21 04:31:44;;;;;;;48.03;20.90;;;9.10;99.90;;;;;;5044545;28;20060;-59
2023/11/21 04:34:10;;;;;;;55.47;21.77;;;9.10;99.90;;;;;;5047938;28;20108;-59
2023/11/21 04:36:35;;;;;;;57.58;19.92;;;9.10;99.90;;;;;;5047545;28;20052;-60
2023/11/21 04:39:01;;;;;;;57.38;21.15;;;9.10;99.90;;;;;;5049693;28;20032;-60
2023/11/21 04:41:26;;;;;;;46.13;19.65;;;9.10;99.90;;;;;;5047587;28;20021;-60
2023/11/21 04:43:52;;;;;;;46.10;21.52;;;8.90;99.90;;;;;;5046220;28;20040;-61
2023/11/21 04:46:17;;;;;;;54.85;21.23;;;8.80;99.90;;;;;;5042621;28;20047;-59
2023/11/21 04:48:43;;;;;;;53.25;22.30;;;8.70;99.90;;;;;;5041574;28;20094;-61
2023/11/21 04:51:11;;;;;;;56.58;23.70;;;8.70;99.90;;;;;;5045123;28;20090;-60
2023/11/21 04:53:37;;;;;;;46.42;20.52;;;8.60;99.90;;;;;;5040518;28;20060;-58
2023/11/21 04:56:03;;;;;;;49.90;21.52;;;8.60;99.90;;;;;;5056132;28;20471;-59
2023/11/21 04:58:28;;;;;;;50.67;22.90;;;8.70;99.90;;;;;;5045925;28;20021;-58
2023/11/21 05:00:54;;;;;;;58.38;23.67;;;8.70;99.90;;;;;;5044535;28;20414;-57
2023/11/21 05:03:20;;;;;;;56.33;20.60;;;8.60;99.90;;;;;;5049267;28;20483;-59
2023/11/21 05:05:45;;;;;;;55.35;22.92;;;8.60;99.90;;;;;;5049820;28;20041;-59
2023/11/21 05:08:11;;;;;;;48.63;21.38;;;8.70;99.90;;;;;;5051971;28;20024;-58
2023/11/21 05:10:39;;;;;;;64.13;23.17;;;8.60;99.90;;;;;;5044439;28;20030;-58
2023/11/21 05:13:08;;;;;;;56.47;22.95;;;8.60;99.90;;;;;;5046905;28;20033;-60
2023/11/21 05:15:35;;;;;;;54.17;22.85;;;8.50;99.90;;;;;;5050410;28;20021;-60
2023/11/21 05:18:00;;;;;;;52.47;21.73;;;8.40;99.90;;;;;;5046526;28;20078;-57
2023/11/21 05:20:26;;;;;;;59.50;22.80;;;8.30;99.90;;;;;;5050907;28;20144;-59
2023/11/21 05:22:52;;;;;;;60.92;22.50;;;8.30;99.90;;;;;;5052863;28;20017;-59
2023/11/21 05:25:20;;;;;;;58.58;21.58;;;8.30;99.90;;;;;;5046569;28;20044;-57
2023/11/21 05:27:47;;;;;;;60.05;21.85;;;8.20;99.90;;;;;;5046592;28;20093;-59
2023/11/21 05:30:14;;;;;;;46.05;20.17;;;8.20;99.90;;;;;;5045833;28;20033;-59
2023/11/21 05:32:43;;;;;;;51.60;23.05;;;8.30;99.90;;;;;;5048696;28;20107;-58
2023/11/21 05:35:12;;;;;;;51.88;21.35;;;8.30;99.90;;;;;;5052099;28;20416;-58
2023/11/21 05:37:41;;;;;;;57.22;22.05;;;8.30;99.90;;;;;;5049972;28;20031;-58
2023/11/21 05:40:08;;;;;;;50.90;21.58;;;8.30;99.90;;;;;;5044718;28;20068;-60
2023/11/21 05:42:34;;;;;;;51.70;21.60;;;8.20;99.90;;;;;;5046051;28;20039;-59
2023/11/21 05:45:09;;;;;;;46.83;21.52;;;8.30;99.90;;;;;;5043942;28;20041;-60
2023/11/21 05:47:43;;;;;;;50.28;22.42;;;8.30;99.90;;;;;;5050781;28;20040;-58
2023/11/21 05:50:11;;;;;;;54.03;22.42;;;8.30;99.90;;;;;;5049712;28;20032;-59
2023/11/21 05:52:39;;;;;;;65.10;23.90;;;8.30;99.90;;;;;;5047580;28;20036;-58
2023/11/21 05:55:08;;;;;;;70.80;24.02;;;8.30;99.90;;;;;;5046828;28;20086;-61
2023/11/21 05:57:38;;;;;;;56.03;21.80;;;8.30;99.90;;;;;;5046290;28;20081;-59
2023/11/21 06:00:18;;;;;;;55.22;22.65;;;8.40;99.90;;;;;;5043805;28;20471;-58
2023/11/21 06:02:45;;;;;;;52.30;21.88;;;8.40;99.90;;;;;;5039739;28;20056;-60
2023/11/21 06:05:10;;;;;;;63.63;23.40;;;8.40;99.90;;;;;;5049190;28;20040;-59
2023/11/21 06:07:37;;;;;;;63.95;23.05;;;8.50;99.90;;;;;;5046734;28;20035;-59
2023/11/21 06:10:10;;;;;;;52.78;22.70;;;8.40;99.90;;;;;;5036846;28;20372;-58
2023/11/21 06:12:35;;;;;;;61.78;26.95;;;8.40;99.90;;;;;;5041930;28;20030;-57
2023/11/21 06:15:07;;;;;;;62.00;24.30;;;8.40;99.90;;;;;;5049455;28;20023;-58
2023/11/21 06:17:36;;;;;;;43.42;19.85;;;8.40;99.90;;;;;;5049651;28;20463;-61
2023/11/21 06:20:08;;;;;;;49.55;21.30;;;8.40;99.90;;;;;;5047953;28;20028;-60
2023/11/21 06:22:38;;;;;;;66.80;25.08;;;8.40;99.90;;;;;;5049954;28;20479;-56
2023/11/21 06:25:05;;;;;;;67.75;25.70;;;8.30;99.90;;;;;;5051382;28;20033;-60
2023/11/21 06:27:32;;;;;;;73.80;24.95;;;8.40;99.90;;;;;;5048129;28;20033;-55
2023/11/21 06:29:57;;;;;;;68.45;23.42;;;8.50;99.90;;;;;;5042527;28;20101;-59
2023/11/21 06:32:23;;;;;;;68.00;27.42;;;8.50;99.90;;;;;;5048559;28;20112;-59
2023/11/21 06:34:49;;;;;;;75.22;30.45;;;8.50;99.90;;;;;;5046794;28;20487;-58
2023/11/21 06:37:15;;;;;;;66.45;27.45;;;8.50;99.90;;;;;;5041412;28;20451;-58
2023/11/21 06:39:41;;;;;;;75.93;28.50;;;8.60;99.90;;;;;;5039241;28;20546;-60
2023/11/21 06:42:07;;;;;;;77.40;30.15;;;8.50;99.90;;;;;;5046376;28;20041;-59
2023/11/21 06:44:33;;;;;;;82.10;30.13;;;8.50;99.90;;;;;;5045599;28;20108;-61
2023/11/21 06:46:59;;;;;;;88.95;29.42;;;8.50;99.90;;;;;;5042497;28;20415;-61
2023/11/21 06:49:25;;;;;;;91.88;31.23;;;8.60;99.90;;;;;;5046131;28;20036;-61
2023/11/21 06:51:51;;;;;;;94.50;32.17;;;8.50;99.90;;;;;;5045670;28;20037;-60
2023/11/21 06:54:16;;;;;;;81.85;29.67;;;8.60;99.90;;;;;;5050357;28;20025;-59
2023/11/21 06:56:42;;;;;;;97.05;31.13;;;8.60;99.90;;;;;;5046331;28;20018;-59
2023/11/21 06:59:08;;;;;;;85.53;30.13;;;8.60;99.90;;;;;;5046833;28;20078;-58
2023/11/21 07:01:38;;;;;;;75.22;28.40;;;8.60;99.90;;;;;;5050047;28;20483;-59
2023/11/21 07:04:05;;;;;;;90.20;31.10;;;8.50;99.90;;;;;;5050429;28;20540;-59
2023/11/21 07:06:31;;;;;;;83.93;30.20;;;8.60;99.90;;;;;;5049498;28;20033;-60
2023/11/21 07:08:57;;;;;;;76.10;29.77;;;8.50;99.90;;;;;;5050169;28;20032;-58
2023/11/21 07:11:22;;;;;;;96.95;31.65;;;8.50;99.90;;;;;;5048970;28;20025;-56
2023/11/21 07:13:48;;;;;;;87.15;29.08;;;8.50;99.90;;;;;;5047089;28;20490;-58
2023/11/21 07:16:14;;;;;;;83.00;29.33;;;8.50;99.90;;;;;;5050051;28;20487;-59
2023/11/21 07:18:40;;;;;;;81.05;29.95;;;8.50;99.90;;;;;;5047012;28;20513;-59
2023/11/21 07:21:06;;;;;;;83.05;30.67;;;8.50;99.90;;;;;;5051348;28;20033;-57
2023/11/21 07:23:32;;;;;;;83.85;31.70;;;8.50;99.90;;;;;;5050501;28;20029;-59
2023/11/21 07:25:57;;;;;;;84.80;30.77;;;8.50;99.90;;;;;;5052050;28;20104;-61
2023/11/21 07:28:24;;;;;;;98.82;32.22;;;8.60;99.90;;;;;;5049855;28;20052;-59
2023/11/21 07:30:49;;;;;;;88.35;30.95;;;8.70;99.90;;;;;;5052024;28;20029;-59
2023/11/21 07:33:16;;;;;;;85.53;29.13;;;8.70;99.90;;;;;;5050186;28;20031;-60
2023/11/21 07:35:41;;;;;;;103.32;30.23;;;8.80;99.90;;;;;;5049564;28;20021;-61
2023/11/21 07:38:07;;;;;;;96.32;32.35;;;8.90;99.90;;;;;;5052912;28;20021;-60
2023/11/21 07:40:32;;;;;;;88.68;32.42;;;8.90;99.90;;;;;;5052419;28;20068;-60
2023/11/21 07:42:59;;;;;;;84.45;30.45;;;8.90;99.90;;;;;;5050719;28;20093;-60
2023/11/21 07:45:27;;;;;;;83.65;31.35;;;9.00;99.90;;;;;;5049615;28;20051;-58
2023/11/21 07:47:53;;;;;;;83.97;31.00;;;8.90;99.90;;;;;;5048930;28;20120;-60
2023/11/21 07:50:20;;;;;;;91.82;31.58;;;9.00;99.90;;;;;;5048954;28;20399;-60
2023/11/21 07:52:45;;;;;;;106.25;32.47;;;9.00;99.90;;;;;;5048966;28;20388;-61
2023/11/21 07:55:11;;;;;;;101.75;30.08;;;8.90;99.90;;;;;;5047329;28;20090;-60
2023/11/21 07:57:37;;;;;;;95.63;31.85;;;9.00;99.90;;;;;;5051024;28;20033;-59
2023/11/21 08:00:06;;;;;;;89.90;31.33;;;9.10;99.90;;;;;;5050914;28;20074;-58
2023/11/21 08:02:32;;;;;;;89.40;31.27;;;9.00;99.90;;;;;;5044777;28;20120;-57
2023/11/21 08:04:57;;;;;;;90.05;31.58;;;9.00;99.90;;;;;;5049888;28;20108;-59
2023/11/21 08:07:23;;;;;;;94.88;30.77;;;9.00;99.90;;;;;;5052653;28;20033;-59
2023/11/21 08:09:49;;;;;;;92.15;33.25;;;9.00;99.90;;;;;;5046146;28;20066;-58
2023/11/21 08:12:15;;;;;;;89.72;34.28;;;9.10;99.90;;;;;;5050703;28;20040;-61
2023/11/21 08:14:41;;;;;;;98.18;32.50;;;9.10;99.90;;;;;;5049714;28;20491;-60
2023/11/21 08:17:06;;;;;;;97.45;34.90;;;9.10;99.90;;;;;;5048036;28;20036;-56
2023/11/21 08:19:32;;;;;;;96.32;33.10;;;9.20;99.90;;;;;;5046073;28;20041;-57
2023/11/21 08:21:59;;;;;;;99.30;32.65;;;9.20;99.90;;;;;;5051829;28;20035;-60
2023/11/21 08:24:24;;;;;;;109.30;34.08;;;9.20;99.90;;;;;;5050784;28;20068;-61
2023/11/21 08:26:52;;;;;;;106.10;33.72;;;9.30;99.90;;;;;;5051999;28;20114;-61
2023/11/21 08:29:18;;;;;;;105.10;32.42;;;9.30;99.90;;;;;;5052025;28;20028;-59
2023/11/21 08:31:46;;;;;;;102.25;34.15;;;9.30;99.90;;;;;;5050776;28;20086;-61
2023/11/21 08:34:12;;;;;;;96.13;34.33;;;9.40;99.90;;;;;;5049176;28;20036;-60
2023/11/21 08:36:42;;;;;;;100.72;35.25;;;9.40;99.90;;;;;;5050990;28;20060;-61
2023/11/21 08:39:09;;;;;;;94.82;34.67;;;9.40;99.90;;;;;;5053410;28;20091;-61
2023/11/21 08:41:36;;;;;;;109.20;36.25;;;9.40;99.90;;;;;;5050890;28;20032;-60
2023/11/21 08:44:05;;;;;;;117.57;35.65;;;9.40;99.90;;;;;;5050011;28;20025;-55
2023/11/21 08:46:31;;;;;;;89.97;33.20;;;9.40;99.90;;;;;;5051482;28;20056;-54
2023/11/21 08:48:56;;;;;;;111.90;38.38;;;9.50;99.90;;;;;;5048141;28;20463;-59
2023/11/21 08:51:22;;;;;;;103.32;37.58;;;9.40;99.90;;;;;;5050610;28;20108;-58
2023/11/21 08:53:47;;;;;;;101.65;36.28;;;9.40;99.90;;;;;;5045767;28;20391;-57
2023/11/21 08:56:16;;;;;;;93.15;34.45;;;9.40;99.90;;;;;;5049792;28;20036;-60
2023/11/21 08:58:42;;;;;;;113.43;36.30;;;9.50;99.90;;;;;;5049768;28;20033;-59
2023/11/21 09:01:07;;;;;;;101.95;36.40;;;9.40;99.90;;;;;;5050823;28;20112;-60
2023/11/21 09:03:34;;;;;;;103.10;34.78;;;9.40;99.90;;;;;;5049964;28;20041;-57
2023/11/21 09:06:00;;;;;;;103.70;35.33;;;9.50;99.90;;;;;;5050208;28;20021;-60
2023/11/21 09:08:25;;;;;;;121.32;37.20;;;9.50;99.90;;;;;;5049450;28;20021;-60
2023/11/21 09:10:51;;;;;;;106.18;37.72;;;9.60;99.90;;;;;;5050085;28;21912;-59
2023/11/21 09:13:17;;;;;;;117.00;38.22;;;9.70;99.90;;;;;;5048806;28;20017;-59
2023/11/21 09:15:46;;;;;;;98.45;35.78;;;9.70;99.90;;;;;;5049216;28;20023;-59
2023/11/21 09:18:15;;;;;;;107.32;33.67;;;9.50;99.90;;;;;;5046069;28;20390;-60
2023/11/21 09:20:42;;;;;;;104.82;35.15;;;9.60;99.90;;;;;;5046189;28;20040;-60
2023/11/21 09:23:08;;;;;;;96.45;35.72;;;9.70;99.90;;;;;;5051474;28;20092;-59
2023/11/21 09:25:33;;;;;;;93.65;33.63;;;9.70;99.90;;;;;;5049521;28;20151;-59
2023/11/21 09:27:59;;;;;;;107.63;33.92;;;9.80;99.90;;;;;;5049081;28;20036;-60
2023/11/21 09:30:25;;;;;;;87.15;34.22;;;9.90;99.90;;;;;;5051220;28;20029;-58
2023/11/21 09:32:51;;;;;;;96.45;34.13;;;9.90;99.90;;;;;;5051137;28;20046;-59
2023/11/21 09:35:18;;;;;;;97.90;34.53;;;10.00;99.90;;;;;;5051447;28;20071;-61
2023/11/21 09:37:46;;;;;;;83.53;33.50;;;9.90;99.90;;;;;;5048417;28;20032;-59
2023/11/21 09:40:13;;;;;;;84.70;31.73;;;9.90;99.90;;;;;;5046985;28;20132;-57
2023/11/21 09:42:43;;;;;;;100.78;33.10;;;9.90;99.90;;;;;;5046183;28;20373;-56
2023/11/21 09:45:25;;;;;;;81.78;31.38;;;9.90;99.90;;;;;;5050135;28;20028;-58
2023/11/21 09:47:53;;;;;;;93.50;30.88;;;9.90;99.90;;;;;;5050252;28;20039;-59
2023/11/21 09:50:21;;;;;;;97.47;34.17;;;9.90;99.90;;;;;;5050683;28;20045;-61
2023/11/21 09:53:10;;;;;;;90.00;34.83;;;9.90;99.90;;;;;;5049802;28;20029;-59
2023/11/21 09:55:38;;;;;;;86.80;33.80;;;9.80;99.90;;;;;;5050505;28;20056;-57
2023/11/21 09:58:07;;;;;;;84.28;31.67;;;9.80;99.90;;;;;;5046926;28;20017;-59
2023/11/21 10:00:33;;;;;;;89.13;31.42;;;9.90;99.90;;;;;;5050469;28;20029;-60
2023/11/21 10:02:59;;;;;;;88.28;30.30;;;10.00;99.90;;;;;;5045229;28;20044;-59
2023/11/21 10:05:25;;;;;;;76.80;30.85;;;10.00;99.90;;;;;;5047989;28;20032;-59
2023/11/21 10:07:52;;;;;;;79.03;30.52;;;10.00;99.90;;;;;;5044237;28;20037;-58
2023/11/21 10:10:21;;;;;;;78.72;26.85;;;10.00;99.90;;;;;;5047621;28;20024;-60
2023/11/21 10:12:53;;;;;;;76.30;29.85;;;10.00;99.90;;;;;;5042839;28;20099;-60
2023/11/21 10:15:21;;;;;;;84.43;29.33;;;10.00;99.90;;;;;;5046460;28;20029;-58
2023/11/21 10:17:49;;;;;;;78.50;29.17;;;10.00;99.90;;;;;;5045654;28;20514;-56
2023/11/21 10:20:16;;;;;;;90.57;28.40;;;10.00;99.90;;;;;;5041513;28;20067;-60
2023/11/21 10:22:43;;;;;;;80.38;29.95;;;10.00;99.90;;;;;;5043608;28;20706;-57
2023/11/21 10:25:09;;;;;;;72.35;28.98;;;10.00;99.90;;;;;;5042992;28;20099;-59
2023/11/21 10:27:39;;;;;;;86.32;29.05;;;10.10;99.90;;;;;;5049846;28;20036;-60
2023/11/21 10:30:05;;;;;;;75.72;30.25;;;10.00;99.90;;;;;;5047466;28;20024;-60
2023/11/21 10:32:32;;;;;;;78.18;31.63;;;10.00;99.90;;;;;;5042950;28;20407;-58
2023/11/21 10:35:06;;;;;;;88.18;31.40;;;10.00;99.90;;;;;;5050275;28;20102;-60
2023/11/21 10:37:35;;;;;;;82.30;30.43;;;10.10;99.90;;;;;;5046672;28;20048;-59
2023/11/21 10:40:00;;;;;;;73.30;29.33;;;10.10;99.90;;;;;;5048798;28;20358;-54
2023/11/21 10:42:27;;;;;;;82.85;28.42;;;10.10;99.90;;;;;;5051405;28;20112;-56
2023/11/21 10:44:53;;;;;;;71.80;26.60;;;10.10;99.90;;;;;;5051992;28;20444;-58
2023/11/21 10:47:19;;;;;;;68.07;25.92;;;10.10;99.90;;;;;;5050689;28;20032;-58
2023/11/21 10:49:48;;;;;;;78.75;26.08;;;10.10;99.90;;;;;;5051843;28;20025;-58
2023/11/21 10:52:17;;;;;;;69.32;25.95;;;10.10;99.90;;;;;;5047604;28;20577;-58
2023/11/21 10:54:43;;;;;;;80.57;26.92;;;10.10;99.90;;;;;;5050711;28;20033;-58
2023/11/21 10:57:10;;;;;;;66.32;24.10;;;10.20;99.90;;;;;;5050703;28;20029;-59
2023/11/21 10:59:36;;;;;;;70.70;24.80;;;10.20;99.90;;;;;;5047376;28;20558;-60
2023/11/21 11:02:27;;;;;;;68.93;24.10;;;10.20;99.90;;;;;;5049828;28;20112;-58
2023/11/21 11:04:57;;;;;;;64.68;22.60;;;10.20;99.90;;;;;;5048392;28;20029;-59
2023/11/21 11:07:26;;;;;;;66.38;22.60;;;10.20;99.90;;;;;;5050776;28;20406;-60
2023/11/21 11:09:56;;;;;;;58.95;22.77;;;10.20;99.90;;;;;;5051165;28;20037;-60
2023/11/21 11:12:22;;;;;;;63.55;22.02;;;10.20;99.90;;;;;;5050366;28;20029;-60
2023/11/21 11:14:48;;;;;;;63.85;24.05;;;10.20;99.90;;;;;;5050180;28;20511;-59
2023/11/21 11:17:14;;;;;;;61.08;22.05;;;10.30;99.90;;;;;;5048296;28;20091;-59
2023/11/21 11:19:40;;;;;;;60.67;22.92;;;10.40;99.90;;;;;;5049719;28;20517;-58
2023/11/21 11:22:07;;;;;;;53.15;20.98;;;10.40;99.90;;;;;;5050822;28;20399;-59
2023/11/21 11:25:19;;;;;;;74.10;22.75;;;10.30;99.90;;;;;;5051209;28;20120;-57
2023/11/21 11:27:54;;;;;;;61.60;19.67;;;10.40;99.90;;;;;;5043197;28;20032;-55
2023/11/21 11:30:20;;;;;;;52.10;20.40;;;10.30;99.90;;;;;;5050624;28;20867;-58
2023/11/21 11:33:25;;;;;;;56.25;20.08;;;10.30;99.90;;;;;;5049742;28;20108;-56
2023/11/21 11:36:04;;;;;;;72.45;22.55;;;10.30;99.90;;;;;;5045421;28;20048;-59
2023/11/21 11:38:33;;;;;;;73.32;23.27;;;10.30;99.90;;;;;;5046190;28;20028;-58
2023/11/21 11:41:03;;;;;;;69.55;22.98;;;10.30;99.90;;;;;;5048652;28;20020;-59
2023/11/21 11:43:30;;;;;;;63.55;23.17;;;10.30;99.90;;;;;;5049714;28;20433;-58
2023/11/21 11:45:58;;;;;;;72.15;23.85;;;10.30;99.90;;;;;;5049964;28;20044;-59
2023/11/21 11:48:25;;;;;;;77.60;23.88;;;10.30;99.90;;;;;;5049157;28;20511;-58
2023/11/21 11:51:04;;;;;;;77.97;24.92;;;10.30;99.90;;;;;;5046134;28;20033;-57
2023/11/21 11:53:39;;;;;;;75.63;24.98;;;10.30;99.90;;;;;;5049051;28;20029;-58
2023/11/21 11:56:23;;;;;;;74.53;24.02;;;10.30;99.90;;;;;;5047564;28;20114;-60
2023/11/21 11:58:50;;;;;;;78.90;23.00;;;10.30;99.90;;;;;;5048336;28;20021;-59
2023/11/21 12:01:20;;;;;;;79.13;23.60;;;10.40;99.90;;;;;;5049015;28;20494;-60
2023/11/21 12:04:14;;;;;;;77.25;25.08;;;10.40;99.90;;;;;;5048324;28;20110;-59
2023/11/21 12:06:42;;;;;;;68.93;21.87;;;10.50;99.90;;;;;;5046664;28;20823;-58
2023/11/21 12:09:19;;;;;;;56.55;20.50;;;10.50;99.90;;;;;;5049570;28;20052;-58
2023/11/21 12:11:46;;;;;;;70.72;23.73;;;10.50;99.90;;;;;;5049116;28;20040;-59
2023/11/21 12:14:13;;;;;;;65.35;22.48;;;10.70;99.90;;;;;;5050887;28;20498;-59
2023/11/21 12:16:39;;;;;;;59.97;21.02;;;10.70;99.90;;;;;;5043302;28;20438;-60
2023/11/21 12:19:05;;;;;;;70.93;23.10;;;10.60;99.90;;;;;;5045253;28;20037;-57
2023/11/21 12:21:32;;;;;;;70.53;21.35;;;10.60;99.90;;;;;;5052615;28;20045;-58
2023/11/21 12:23:57;;;;;;;67.82;22.92;;;10.60;99.90;;;;;;5046981;28;20040;-59
2023/11/21 12:26:27;;;;;;;62.97;22.33;;;10.60;99.90;;;;;;5053538;28;20025;-61
2023/11/21 12:28:55;;;;;;;59.15;20.80;;;10.60;99.90;;;;;;5056075;28;20060;-58
2023/11/21 12:31:22;;;;;;;50.35;20.05;;;10.70;99.90;;;;;;5047686;28;20036;-57
2023/11/21 12:33:48;;;;;;;59.55;20.65;;;10.60;99.90;;;;;;5048053;28;20033;-59